CYQZ

Details ICAO CYQZ (YQZ)
Name QUESNEL
Region Canada
Timezone America/Vancouver (UTC-7.0)
Plans Departing 8
Arriving 6
Stats Elevation 1,789 ft / 545 m (AMSL)
Location 53.026076° -122.510366°
Runways 1
Magnetic Variation 17.037° E
Sunrise 2018-05-20 12:05:20 UTC / 2018-05-20 05:05:20 Local
Sunset 2018-05-21 04:10:41 UTC / 2018-05-20 21:10:41 Local
Advertisement - Login to hide

Runways

ID Width Length Bearing (true) Bearing (mag) Surface Threshold Offset Overrun Length
13 200 ft / 61 m 5,494 ft / 1,675 m 149.59° 132.55° Asphalt 0 ft / 0 m 0 ft / 0 m
31 200 ft / 61 m 5,494 ft / 1,675 m 329.60° 312.56° Asphalt 0 ft / 0 m 0 ft / 0 m

Map

Weather


0- 5 10 15 20 25 30 35+ Temperature / ° C

Clouds and Precipitation
Forecast for 2018-05-21 06:00 UTC. Updated 2 hours ago

Ground ~20,000 ft ~40,000 ft Winds

METAR

CYQZ 210500Z AUTO 10003KT 060V130 9SM OVC095 14/12 A2992 RMK SLP141 DENSITY ALT 2100FT

TAF

TAF CYQZ 210038Z 2101/2106 16008KT P6SM BKN060 TEMPO 2101/2106 P6SM -SHRA BKN060 RMK FCST BASED ON AUTO OBS. NXT FCST WILL BE ISSUED AT 211145Z

Frequencies

Recorded 124.40 MHz AWOS
Tower 122.20 MHz WILLIAMS LAKE RDO
Warning: Do not use this data for real-world aviation or navigation. No guarantee of current accuracy is given.